sensor_id;sensor_type;location;lat;lon;timestamp;P1;durP1;ratioP1;P2;durP2;ratioP2
70967;SDS011;58629;48.808;8.820;2023-05-10T00:01:05;0.53;;;0.00;;
70967;SDS011;58629;48.808;8.820;2023-05-10T00:03:30;0.52;;;0.00;;
70967;SDS011;58629;48.808;8.820;2023-05-10T00:05:55;0.00;;;0.00;;
70967;SDS011;58629;48.808;8.820;2023-05-10T00:08:21;0.00;;;0.00;;
70967;SDS011;58629;48.808;8.820;2023-05-10T00:10:46;0.00;;;0.00;;
70967;SDS011;58629;48.808;8.820;2023-05-10T00:13:12;0.00;;;0.00;;
70967;SDS011;58629;48.808;8.820;2023-05-10T00:15:37;0.30;;;0.20;;
70967;SDS011;58629;48.808;8.820;2023-05-10T00:18:02;1.17;;;0.00;;
70967;SDS011;58629;48.808;8.820;2023-05-10T00:20:28;0.00;;;0.00;;
70967;SDS011;58629;48.808;8.820;2023-05-10T00:22:53;0.00;;;0.00;;
70967;SDS011;58629;48.808;8.820;2023-05-10T00:25:18;0.00;;;0.00;;
70967;SDS011;58629;48.808;8.820;2023-05-10T00:27:43;0.80;;;0.00;;
70967;SDS011;58629;48.808;8.820;2023-05-10T00:30:09;0.30;;;0.00;;
70967;SDS011;58629;48.808;8.820;2023-05-10T00:32:34;2.27;;;0.00;;
70967;SDS011;58629;48.808;8.820;2023-05-10T00:35:00;0.47;;;0.00;;
70967;SDS011;58629;48.808;8.820;2023-05-10T00:37:25;0.07;;;0.00;;
70967;SDS011;58629;48.808;8.820;2023-05-10T00:39:50;0.10;;;0.00;;
70967;SDS011;58629;48.808;8.820;2023-05-10T00:42:15;0.10;;;0.08;;
70967;SDS011;58629;48.808;8.820;2023-05-10T00:44:41;2.00;;;0.20;;
70967;SDS011;58629;48.808;8.820;2023-05-10T00:47:06;0.20;;;0.10;;
70967;SDS011;58629;48.808;8.820;2023-05-10T00:49:32;0.10;;;0.10;;
70967;SDS011;58629;48.808;8.820;2023-05-10T00:51:57;0.32;;;0.20;;
70967;SDS011;58629;48.808;8.820;2023-05-10T00:54:23;0.10;;;0.10;;
70967;SDS011;58629;48.808;8.820;2023-05-10T00:56:49;0.20;;;0.20;;
70967;SDS011;58629;48.808;8.820;2023-05-10T00:59:15;9.43;;;0.83;;
70967;SDS011;58629;48.808;8.820;2023-05-10T01:01:41;0.15;;;0.15;;
70967;SDS011;58629;48.808;8.820;2023-05-10T01:04:08;2.15;;;0.20;;
70967;SDS011;58629;48.808;8.820;2023-05-10T01:06:35;0.17;;;0.10;;
70967;SDS011;58629;48.808;8.820;2023-05-10T01:09:01;0.17;;;0.10;;
70967;SDS011;58629;48.808;8.820;2023-05-10T01:11:27;1.40;;;0.20;;
70967;SDS011;58629;48.808;8.820;2023-05-10T01:13:54;0.20;;;0.00;;
70967;SDS011;58629;48.808;8.820;2023-05-10T01:16:22;0.10;;;0.10;;
70967;SDS011;58629;48.808;8.820;2023-05-10T01:18:49;0.10;;;0.10;;
70967;SDS011;58629;48.808;8.820;2023-05-10T01:21:21;0.20;;;0.20;;
70967;SDS011;58629;48.808;8.820;2023-05-10T01:24:09;0.25;;;0.17;;
70967;SDS011;58629;48.808;8.820;2023-05-10T01:29:40;0.57;;;0.20;;
70967;SDS011;58629;48.808;8.820;2023-05-10T01:32:29;0.98;;;0.20;;
70967;SDS011;58629;48.808;8.820;2023-05-10T01:38:05;0.50;;;0.40;;
70967;SDS011;58629;48.808;8.820;2023-05-10T01:46:16;0.45;;;0.28;;
70967;SDS011;58629;48.808;8.820;2023-05-10T01:48:54;0.40;;;0.30;;
70967;SDS011;58629;48.808;8.820;2023-05-10T01:51:26;0.40;;;0.30;;
70967;SDS011;58629;48.808;8.820;2023-05-10T01:53:57;0.20;;;0.20;;
70967;SDS011;58629;48.808;8.820;2023-05-10T01:56:26;0.23;;;0.20;;
70967;SDS011;58629;48.808;8.820;2023-05-10T01:58:53;0.45;;;0.43;;
70967;SDS011;58629;48.808;8.820;2023-05-10T02:01:20;1.20;;;0.40;;
70967;SDS011;58629;48.808;8.820;2023-05-10T02:03:46;0.55;;;0.50;;
70967;SDS011;58629;48.808;8.820;2023-05-10T02:06:14;0.40;;;0.40;;
70967;SDS011;58629;48.808;8.820;2023-05-10T02:08:43;1.87;;;0.50;;
70967;SDS011;58629;48.808;8.820;2023-05-10T02:11:12;0.98;;;0.40;;
70967;SDS011;58629;48.808;8.820;2023-05-10T02:13:38;0.85;;;0.50;;
70967;SDS011;58629;48.808;8.820;2023-05-10T02:16:05;0.50;;;0.40;;
70967;SDS011;58629;48.808;8.820;2023-05-10T02:18:31;0.35;;;0.30;;
70967;SDS011;58629;48.808;8.820;2023-05-10T02:20:58;0.30;;;0.30;;
70967;SDS011;58629;48.808;8.820;2023-05-10T02:23:25;0.40;;;0.38;;
70967;SDS011;58629;48.808;8.820;2023-05-10T02:25:51;0.17;;;0.17;;
70967;SDS011;58629;48.808;8.820;2023-05-10T02:28:19;0.20;;;0.20;;
70967;SDS011;58629;48.808;8.820;2023-05-10T02:30:47;0.30;;;0.30;;
70967;SDS011;58629;48.808;8.820;2023-05-10T02:33:13;0.52;;;0.40;;
70967;SDS011;58629;48.808;8.820;2023-05-10T02:35:39;0.20;;;0.20;;
70967;SDS011;58629;48.808;8.820;2023-05-10T02:38:05;0.30;;;0.27;;
70967;SDS011;58629;48.808;8.820;2023-05-10T02:40:31;0.30;;;0.20;;
70967;SDS011;58629;48.808;8.820;2023-05-10T02:42:58;0.28;;;0.20;;
70967;SDS011;58629;48.808;8.820;2023-05-10T02:45:27;0.20;;;0.20;;
70967;SDS011;58629;48.808;8.820;2023-05-10T02:47:55;0.30;;;0.20;;
70967;SDS011;58629;48.808;8.820;2023-05-10T02:50:21;0.20;;;0.17;;
70967;SDS011;58629;48.808;8.820;2023-05-10T02:52:50;0.43;;;0.28;;
70967;SDS011;58629;48.808;8.820;2023-05-10T02:55:20;0.20;;;0.20;;
70967;SDS011;58629;48.808;8.820;2023-05-10T02:58:00;0.10;;;0.10;;
70967;SDS011;58629;48.808;8.820;2023-05-10T03:00:27;0.20;;;0.20;;
70967;SDS011;58629;48.808;8.820;2023-05-10T03:02:52;0.30;;;0.20;;
70967;SDS011;58629;48.808;8.820;2023-05-10T03:05:18;0.30;;;0.30;;
70967;SDS011;58629;48.808;8.820;2023-05-10T03:07:44;0.43;;;0.30;;
70967;SDS011;58629;48.808;8.820;2023-05-10T03:10:10;0.30;;;0.30;;
70967;SDS011;58629;48.808;8.820;2023-05-10T03:18:18;0.47;;;0.30;;
70967;SDS011;58629;48.808;8.820;2023-05-10T03:20:48;0.30;;;0.30;;
70967;SDS011;58629;48.808;8.820;2023-05-10T03:25:48;0.20;;;0.20;;
70967;SDS011;58629;48.808;8.820;2023-05-10T03:28:14;0.47;;;0.38;;
70967;SDS011;58629;48.808;8.820;2023-05-10T03:30:40;0.40;;;0.38;;
70967;SDS011;58629;48.808;8.820;2023-05-10T03:33:07;0.50;;;0.40;;
70967;SDS011;58629;48.808;8.820;2023-05-10T03:35:33;1.00;;;0.70;;
70967;SDS011;58629;48.808;8.820;2023-05-10T03:37:58;0.50;;;0.50;;
70967;SDS011;58629;48.808;8.820;2023-05-10T03:40:23;0.80;;;0.60;;
70967;SDS011;58629;48.808;8.820;2023-05-10T03:42:50;0.88;;;0.60;;
70967;SDS011;58629;48.808;8.820;2023-05-10T03:45:15;0.70;;;0.60;;
70967;SDS011;58629;48.808;8.820;2023-05-10T03:47:40;1.23;;;0.80;;
70967;SDS011;58629;48.808;8.820;2023-05-10T03:50:06;1.03;;;0.70;;
70967;SDS011;58629;48.808;8.820;2023-05-10T03:52:32;0.70;;;0.70;;
70967;SDS011;58629;48.808;8.820;2023-05-10T03:54:57;1.90;;;0.90;;
70967;SDS011;58629;48.808;8.820;2023-05-10T03:57:22;1.10;;;0.80;;
70967;SDS011;58629;48.808;8.820;2023-05-10T03:59:47;0.67;;;0.60;;
70967;SDS011;58629;48.808;8.820;2023-05-10T04:02:13;0.73;;;0.60;;
70967;SDS011;58629;48.808;8.820;2023-05-10T04:04:38;0.50;;;0.47;;
70967;SDS011;58629;48.808;8.820;2023-05-10T04:07:03;0.70;;;0.70;;
70967;SDS011;58629;48.808;8.820;2023-05-10T04:09:29;0.50;;;0.47;;
70967;SDS011;58629;48.808;8.820;2023-05-10T04:11:54;0.50;;;0.50;;
70967;SDS011;58629;48.808;8.820;2023-05-10T04:14:19;0.40;;;0.40;;
70967;SDS011;58629;48.808;8.820;2023-05-10T04:16:44;0.40;;;0.33;;
70967;SDS011;58629;48.808;8.820;2023-05-10T04:19:10;0.60;;;0.50;;
70967;SDS011;58629;48.808;8.820;2023-05-10T04:21:35;0.30;;;0.30;;
70967;SDS011;58629;48.808;8.820;2023-05-10T04:24:01;0.40;;;0.40;;
70967;SDS011;58629;48.808;8.820;2023-05-10T04:26:26;0.43;;;0.40;;
70967;SDS011;58629;48.808;8.820;2023-05-10T04:28:51;0.50;;;0.40;;
70967;SDS011;58629;48.808;8.820;2023-05-10T04:31:17;0.40;;;0.40;;
70967;SDS011;58629;48.808;8.820;2023-05-10T04:33:42;0.40;;;0.37;;
70967;SDS011;58629;48.808;8.820;2023-05-10T04:36:07;0.33;;;0.30;;
70967;SDS011;58629;48.808;8.820;2023-05-10T04:38:33;0.40;;;0.40;;
70967;SDS011;58629;48.808;8.820;2023-05-10T04:41:08;0.30;;;0.30;;
70967;SDS011;58629;48.808;8.820;2023-05-10T04:43:34;0.38;;;0.30;;
70967;SDS011;58629;48.808;8.820;2023-05-10T04:46:00;0.30;;;0.25;;
70967;SDS011;58629;48.808;8.820;2023-05-10T04:48:25;0.30;;;0.20;;
70967;SDS011;58629;48.808;8.820;2023-05-10T04:50:51;0.30;;;0.30;;
70967;SDS011;58629;48.808;8.820;2023-05-10T04:53:16;0.20;;;0.20;;
70967;SDS011;58629;48.808;8.820;2023-05-10T04:55:41;0.30;;;0.30;;
70967;SDS011;58629;48.808;8.820;2023-05-10T04:58:07;0.30;;;0.30;;
70967;SDS011;58629;48.808;8.820;2023-05-10T05:00:33;0.40;;;0.40;;
70967;SDS011;58629;48.808;8.820;2023-05-10T05:02:58;0.35;;;0.35;;
70967;SDS011;58629;48.808;8.820;2023-05-10T05:05:24;0.20;;;0.20;;
70967;SDS011;58629;48.808;8.820;2023-05-10T05:07:49;0.60;;;0.50;;
70967;SDS011;58629;48.808;8.820;2023-05-10T05:10:15;0.20;;;0.20;;
70967;SDS011;58629;48.808;8.820;2023-05-10T05:12:40;0.40;;;0.30;;
70967;SDS011;58629;48.808;8.820;2023-05-10T05:15:06;0.50;;;0.50;;
70967;SDS011;58629;48.808;8.820;2023-05-10T05:17:33;0.40;;;0.40;;
70967;SDS011;58629;48.808;8.820;2023-05-10T05:19:58;0.40;;;0.30;;
70967;SDS011;58629;48.808;8.820;2023-05-10T05:22:23;1.23;;;0.70;;
70967;SDS011;58629;48.808;8.820;2023-05-10T05:24:55;1.80;;;1.10;;
70967;SDS011;58629;48.808;8.820;2023-05-10T05:27:20;1.15;;;0.90;;
70967;SDS011;58629;48.808;8.820;2023-05-10T05:29:49;1.25;;;0.90;;
70967;SDS011;58629;48.808;8.820;2023-05-10T05:32:14;0.70;;;0.60;;
70967;SDS011;58629;48.808;8.820;2023-05-10T05:34:40;0.80;;;0.80;;
70967;SDS011;58629;48.808;8.820;2023-05-10T05:37:05;1.53;;;0.90;;
70967;SDS011;58629;48.808;8.820;2023-05-10T05:39:31;0.70;;;0.70;;
70967;SDS011;58629;48.808;8.820;2023-05-10T05:41:56;0.60;;;0.60;;
70967;SDS011;58629;48.808;8.820;2023-05-10T05:44:21;0.70;;;0.60;;
70967;SDS011;58629;48.808;8.820;2023-05-10T05:46:46;0.50;;;0.50;;
70967;SDS011;58629;48.808;8.820;2023-05-10T05:49:12;0.50;;;0.50;;
70967;SDS011;58629;48.808;8.820;2023-05-10T05:51:37;0.40;;;0.40;;
70967;SDS011;58629;48.808;8.820;2023-05-10T05:54:02;0.50;;;0.50;;
70967;SDS011;58629;48.808;8.820;2023-05-10T05:56:29;0.50;;;0.50;;
70967;SDS011;58629;48.808;8.820;2023-05-10T05:58:54;0.57;;;0.47;;
70967;SDS011;58629;48.808;8.820;2023-05-10T06:01:20;0.50;;;0.50;;
70967;SDS011;58629;48.808;8.820;2023-05-10T06:03:45;0.50;;;0.40;;
70967;SDS011;58629;48.808;8.820;2023-05-10T06:06:10;0.40;;;0.40;;
70967;SDS011;58629;48.808;8.820;2023-05-10T06:08:36;0.60;;;0.60;;
70967;SDS011;58629;48.808;8.820;2023-05-10T06:11:01;0.70;;;0.53;;
70967;SDS011;58629;48.808;8.820;2023-05-10T06:13:26;0.43;;;0.43;;
70967;SDS011;58629;48.808;8.820;2023-05-10T06:16:00;0.50;;;0.50;;
70967;SDS011;58629;48.808;8.820;2023-05-10T06:18:27;0.77;;;0.40;;
70967;SDS011;58629;48.808;8.820;2023-05-10T06:20:52;0.50;;;0.50;;
70967;SDS011;58629;48.808;8.820;2023-05-10T06:23:17;0.93;;;0.83;;
70967;SDS011;58629;48.808;8.820;2023-05-10T06:25:43;1.20;;;1.00;;
70967;SDS011;58629;48.808;8.820;2023-05-10T06:28:08;1.10;;;0.90;;
70967;SDS011;58629;48.808;8.820;2023-05-10T06:30:35;1.30;;;0.90;;
70967;SDS011;58629;48.808;8.820;2023-05-10T06:33:01;1.40;;;1.00;;
70967;SDS011;58629;48.808;8.820;2023-05-10T06:35:26;1.10;;;0.90;;
70967;SDS011;58629;48.808;8.820;2023-05-10T06:37:51;1.10;;;0.90;;
70967;SDS011;58629;48.808;8.820;2023-05-10T06:40:17;1.15;;;1.00;;
70967;SDS011;58629;48.808;8.820;2023-05-10T06:42:42;1.38;;;0.90;;
70967;SDS011;58629;48.808;8.820;2023-05-10T06:45:09;1.40;;;1.00;;
70967;SDS011;58629;48.808;8.820;2023-05-10T06:47:35;1.10;;;1.00;;
70967;SDS011;58629;48.808;8.820;2023-05-10T06:50:00;1.00;;;0.83;;
70967;SDS011;58629;48.808;8.820;2023-05-10T06:52:26;0.80;;;0.80;;
70967;SDS011;58629;48.808;8.820;2023-05-10T06:54:51;0.70;;;0.63;;
70967;SDS011;58629;48.808;8.820;2023-05-10T06:57:17;1.17;;;0.90;;
70967;SDS011;58629;48.808;8.820;2023-05-10T06:59:42;0.75;;;0.70;;
70967;SDS011;58629;48.808;8.820;2023-05-10T07:02:08;1.00;;;0.90;;
70967;SDS011;58629;48.808;8.820;2023-05-10T07:04:33;0.80;;;0.50;;
70967;SDS011;58629;48.808;8.820;2023-05-10T07:06:58;0.70;;;0.70;;
70967;SDS011;58629;48.808;8.820;2023-05-10T07:09:24;1.07;;;0.50;;
70967;SDS011;58629;48.808;8.820;2023-05-10T07:11:49;0.73;;;0.60;;
70967;SDS011;58629;48.808;8.820;2023-05-10T07:14:14;1.90;;;0.60;;
70967;SDS011;58629;48.808;8.820;2023-05-10T07:16:40;0.97;;;0.50;;
70967;SDS011;58629;48.808;8.820;2023-05-10T07:19:05;0.45;;;0.45;;
70967;SDS011;58629;48.808;8.820;2023-05-10T07:21:30;0.45;;;0.40;;
70967;SDS011;58629;48.808;8.820;2023-05-10T07:23:56;0.73;;;0.30;;
70967;SDS011;58629;48.808;8.820;2023-05-10T07:26:21;0.50;;;0.40;;
70967;SDS011;58629;48.808;8.820;2023-05-10T07:28:46;0.50;;;0.37;;
70967;SDS011;58629;48.808;8.820;2023-05-10T07:31:12;0.30;;;0.30;;
70967;SDS011;58629;48.808;8.820;2023-05-10T07:33:37;0.40;;;0.40;;
70967;SDS011;58629;48.808;8.820;2023-05-10T07:36:02;0.30;;;0.30;;
70967;SDS011;58629;48.808;8.820;2023-05-10T07:38:28;0.40;;;0.33;;
70967;SDS011;58629;48.808;8.820;2023-05-10T07:40:53;0.40;;;0.40;;
70967;SDS011;58629;48.808;8.820;2023-05-10T07:43:18;0.40;;;0.40;;
70967;SDS011;58629;48.808;8.820;2023-05-10T07:45:43;0.83;;;0.37;;
70967;SDS011;58629;48.808;8.820;2023-05-10T07:48:09;2.20;;;0.50;;
70967;SDS011;58629;48.808;8.820;2023-05-10T07:50:34;0.57;;;0.40;;
70967;SDS011;58629;48.808;8.820;2023-05-10T07:52:59;0.50;;;0.40;;
70967;SDS011;58629;48.808;8.820;2023-05-10T07:55:25;0.90;;;0.40;;
70967;SDS011;58629;48.808;8.820;2023-05-10T07:57:51;1.65;;;0.40;;
70967;SDS011;58629;48.808;8.820;2023-05-10T08:00:16;0.40;;;0.20;;
70967;SDS011;58629;48.808;8.820;2023-05-10T08:02:43;0.50;;;0.30;;
70967;SDS011;58629;48.808;8.820;2023-05-10T08:05:08;0.80;;;0.40;;
70967;SDS011;58629;48.808;8.820;2023-05-10T08:07:34;0.28;;;0.20;;
70967;SDS011;58629;48.808;8.820;2023-05-10T08:09:59;0.20;;;0.20;;
70967;SDS011;58629;48.808;8.820;2023-05-10T08:12:25;0.30;;;0.30;;
70967;SDS011;58629;48.808;8.820;2023-05-10T08:14:50;1.20;;;0.23;;
70967;SDS011;58629;48.808;8.820;2023-05-10T08:17:15;0.93;;;0.27;;
70967;SDS011;58629;48.808;8.820;2023-05-10T08:19:41;0.57;;;0.47;;
70967;SDS011;58629;48.808;8.820;2023-05-10T08:22:06;0.30;;;0.20;;
70967;SDS011;58629;48.808;8.820;2023-05-10T08:24:31;0.30;;;0.27;;
70967;SDS011;58629;48.808;8.820;2023-05-10T08:26:56;0.30;;;0.20;;
70967;SDS011;58629;48.808;8.820;2023-05-10T08:29:22;2.67;;;0.30;;
70967;SDS011;58629;48.808;8.820;2023-05-10T08:31:47;0.20;;;0.20;;
70967;SDS011;58629;48.808;8.820;2023-05-10T08:34:12;0.80;;;0.30;;
70967;SDS011;58629;48.808;8.820;2023-05-10T08:36:38;0.70;;;0.30;;
70967;SDS011;58629;48.808;8.820;2023-05-10T08:39:03;0.30;;;0.30;;
70967;SDS011;58629;48.808;8.820;2023-05-10T08:41:28;0.33;;;0.30;;
70967;SDS011;58629;48.808;8.820;2023-05-10T08:43:55;0.85;;;0.28;;
70967;SDS011;58629;48.808;8.820;2023-05-10T08:46:21;0.20;;;0.20;;
70967;SDS011;58629;48.808;8.820;2023-05-10T08:48:48;0.40;;;0.30;;
70967;SDS011;58629;48.808;8.820;2023-05-10T08:51:15;0.30;;;0.20;;
70967;SDS011;58629;48.808;8.820;2023-05-10T08:53:43;1.02;;;0.28;;
70967;SDS011;58629;48.808;8.820;2023-05-10T08:56:09;0.45;;;0.30;;
70967;SDS011;58629;48.808;8.820;2023-05-10T08:58:34;0.40;;;0.30;;
70967;SDS011;58629;48.808;8.820;2023-05-10T09:01:01;0.25;;;0.25;;
70967;SDS011;58629;48.808;8.820;2023-05-10T09:03:27;1.37;;;0.37;;
70967;SDS011;58629;48.808;8.820;2023-05-10T09:05:53;0.22;;;0.22;;
70967;SDS011;58629;48.808;8.820;2023-05-10T09:08:18;0.82;;;0.30;;
70967;SDS011;58629;48.808;8.820;2023-05-10T09:10:44;1.40;;;0.45;;
70967;SDS011;58629;48.808;8.820;2023-05-10T09:13:12;1.37;;;0.30;;
70967;SDS011;58629;48.808;8.820;2023-05-10T09:15:40;0.40;;;0.22;;
70967;SDS011;58629;48.808;8.820;2023-05-10T09:18:05;0.80;;;0.30;;
70967;SDS011;58629;48.808;8.820;2023-05-10T09:20:30;0.35;;;0.20;;
70967;SDS011;58629;48.808;8.820;2023-05-10T09:22:56;0.30;;;0.20;;
70967;SDS011;58629;48.808;8.820;2023-05-10T09:25:21;0.33;;;0.30;;
70967;SDS011;58629;48.808;8.820;2023-05-10T09:27:47;0.30;;;0.30;;
70967;SDS011;58629;48.808;8.820;2023-05-10T09:30:17;0.60;;;0.30;;
70967;SDS011;58629;48.808;8.820;2023-05-10T09:32:48;0.30;;;0.30;;
70967;SDS011;58629;48.808;8.820;2023-05-10T09:35:16;0.90;;;0.30;;
70967;SDS011;58629;48.808;8.820;2023-05-10T09:37:45;0.50;;;0.20;;
70967;SDS011;58629;48.808;8.820;2023-05-10T09:40:13;0.30;;;0.30;;
70967;SDS011;58629;48.808;8.820;2023-05-10T09:42:41;1.52;;;1.00;;
70967;SDS011;58629;48.808;8.820;2023-05-10T09:45:08;1.35;;;0.47;;
70967;SDS011;58629;48.808;8.820;2023-05-10T09:47:34;0.30;;;0.30;;
70967;SDS011;58629;48.808;8.820;2023-05-10T09:50:00;0.40;;;0.32;;
70967;SDS011;58629;48.808;8.820;2023-05-10T09:52:30;0.77;;;0.20;;
70967;SDS011;58629;48.808;8.820;2023-05-10T09:55:10;0.43;;;0.38;;
70967;SDS011;58629;48.808;8.820;2023-05-10T09:57:35;2.33;;;0.40;;
70967;SDS011;58629;48.808;8.820;2023-05-10T10:00:01;1.73;;;0.27;;
70967;SDS011;58629;48.808;8.820;2023-05-10T10:02:29;0.63;;;0.35;;
70967;SDS011;58629;48.808;8.820;2023-05-10T10:04:56;0.82;;;0.50;;
70967;SDS011;58629;48.808;8.820;2023-05-10T10:07:22;1.17;;;0.33;;
70967;SDS011;58629;48.808;8.820;2023-05-10T10:09:50;0.30;;;0.30;;
70967;SDS011;58629;48.808;8.820;2023-05-10T10:12:16;1.50;;;0.30;;
70967;SDS011;58629;48.808;8.820;2023-05-10T10:14:41;0.30;;;0.30;;
70967;SDS011;58629;48.808;8.820;2023-05-10T10:17:08;0.88;;;0.30;;
70967;SDS011;58629;48.808;8.820;2023-05-10T10:19:34;0.52;;;0.30;;
70967;SDS011;58629;48.808;8.820;2023-05-10T10:22:00;0.40;;;0.30;;
70967;SDS011;58629;48.808;8.820;2023-05-10T10:24:25;1.05;;;0.28;;
70967;SDS011;58629;48.808;8.820;2023-05-10T10:26:52;1.23;;;0.20;;
70967;SDS011;58629;48.808;8.820;2023-05-10T10:29:26;1.13;;;0.20;;
70967;SDS011;58629;48.808;8.820;2023-05-10T10:32:59;0.85;;;0.17;;
70967;SDS011;58629;48.808;8.820;2023-05-10T10:35:19;0.28;;;0.20;;
70967;SDS011;58629;48.808;8.820;2023-05-10T10:37:46;6.23;;;0.60;;
70967;SDS011;58629;48.808;8.820;2023-05-10T10:40:31;0.40;;;0.38;;
70967;SDS011;58629;48.808;8.820;2023-05-10T10:42:59;0.28;;;0.20;;
70967;SDS011;58629;48.808;8.820;2023-05-10T10:46:09;0.50;;;0.22;;
70967;SDS011;58629;48.808;8.820;2023-05-10T10:48:37;0.90;;;0.30;;
70967;SDS011;58629;48.808;8.820;2023-05-10T10:51:02;0.85;;;0.32;;
70967;SDS011;58629;48.808;8.820;2023-05-10T10:53:28;1.73;;;0.23;;
70967;SDS011;58629;48.808;8.820;2023-05-10T10:56:09;0.63;;;0.20;;
70967;SDS011;58629;48.808;8.820;2023-05-10T10:58:38;3.00;;;0.30;;
70967;SDS011;58629;48.808;8.820;2023-05-10T11:01:16;1.83;;;0.28;;
70967;SDS011;58629;48.808;8.820;2023-05-10T11:06:44;0.90;;;0.40;;
70967;SDS011;58629;48.808;8.820;2023-05-10T11:09:10;0.37;;;0.30;;
70967;SDS011;58629;48.808;8.820;2023-05-10T11:11:52;0.73;;;0.32;;
70967;SDS011;58629;48.808;8.820;2023-05-10T11:14:22;1.45;;;0.45;;
70967;SDS011;58629;48.808;8.820;2023-05-10T11:16:48;0.77;;;0.50;;
70967;SDS011;58629;48.808;8.820;2023-05-10T11:19:14;0.97;;;0.40;;
70967;SDS011;58629;48.808;8.820;2023-05-10T11:21:48;0.57;;;0.40;;
70967;SDS011;58629;48.808;8.820;2023-05-10T11:24:17;0.60;;;0.50;;
70967;SDS011;58629;48.808;8.820;2023-05-10T11:26:44;0.95;;;0.40;;
70967;SDS011;58629;48.808;8.820;2023-05-10T11:29:09;0.93;;;0.50;;
70967;SDS011;58629;48.808;8.820;2023-05-10T11:31:41;1.00;;;0.40;;
70967;SDS011;58629;48.808;8.820;2023-05-10T11:34:11;1.20;;;0.57;;
70967;SDS011;58629;48.808;8.820;2023-05-10T11:36:39;0.90;;;0.60;;
70967;SDS011;58629;48.808;8.820;2023-05-10T11:39:04;1.57;;;0.60;;
70967;SDS011;58629;48.808;8.820;2023-05-10T11:41:30;2.00;;;0.60;;
70967;SDS011;58629;48.808;8.820;2023-05-10T11:43:56;1.15;;;0.57;;
70967;SDS011;58629;48.808;8.820;2023-05-10T11:46:23;1.77;;;0.60;;
70967;SDS011;58629;48.808;8.820;2023-05-10T11:48:51;0.98;;;0.50;;
70967;SDS011;58629;48.808;8.820;2023-05-10T11:51:22;2.00;;;0.60;;
70967;SDS011;58629;48.808;8.820;2023-05-10T11:53:49;0.93;;;0.50;;
70967;SDS011;58629;48.808;8.820;2023-05-10T11:56:15;1.35;;;0.50;;
70967;SDS011;58629;48.808;8.820;2023-05-10T11:58:40;0.73;;;0.50;;
70967;SDS011;58629;48.808;8.820;2023-05-10T12:01:06;1.27;;;0.50;;
70967;SDS011;58629;48.808;8.820;2023-05-10T12:03:34;1.25;;;0.60;;
70967;SDS011;58629;48.808;8.820;2023-05-10T12:05:59;1.40;;;0.60;;
70967;SDS011;58629;48.808;8.820;2023-05-10T12:08:26;0.90;;;0.43;;
70967;SDS011;58629;48.808;8.820;2023-05-10T12:10:53;0.63;;;0.50;;
70967;SDS011;58629;48.808;8.820;2023-05-10T12:13:28;3.03;;;0.50;;
70967;SDS011;58629;48.808;8.820;2023-05-10T12:15:54;0.93;;;0.50;;
70967;SDS011;58629;48.808;8.820;2023-05-10T12:18:22;1.13;;;0.55;;
70967;SDS011;58629;48.808;8.820;2023-05-10T12:20:51;1.08;;;0.60;;
70967;SDS011;58629;48.808;8.820;2023-05-10T12:23:18;1.92;;;0.70;;
70967;SDS011;58629;48.808;8.820;2023-05-10T12:25:44;2.50;;;0.60;;
70967;SDS011;58629;48.808;8.820;2023-05-10T12:28:10;0.98;;;0.60;;
70967;SDS011;58629;48.808;8.820;2023-05-10T12:30:35;0.80;;;0.67;;
70967;SDS011;58629;48.808;8.820;2023-05-10T12:33:08;1.27;;;0.70;;
70967;SDS011;58629;48.808;8.820;2023-05-10T12:35:48;1.27;;;0.53;;
70967;SDS011;58629;48.808;8.820;2023-05-10T12:41:03;0.90;;;0.57;;
70967;SDS011;58629;48.808;8.820;2023-05-10T12:43:29;1.67;;;0.60;;
70967;SDS011;58629;48.808;8.820;2023-05-10T12:45:54;1.33;;;0.63;;
70967;SDS011;58629;48.808;8.820;2023-05-10T12:48:20;2.00;;;0.52;;
70967;SDS011;58629;48.808;8.820;2023-05-10T12:50:46;1.53;;;0.60;;
70967;SDS011;58629;48.808;8.820;2023-05-10T12:53:12;3.00;;;0.70;;
70967;SDS011;58629;48.808;8.820;2023-05-10T12:55:40;1.30;;;0.52;;
70967;SDS011;58629;48.808;8.820;2023-05-10T12:58:05;1.70;;;0.70;;
70967;SDS011;58629;48.808;8.820;2023-05-10T13:00:30;1.07;;;0.50;;
70967;SDS011;58629;48.808;8.820;2023-05-10T13:02:56;0.70;;;0.43;;
70967;SDS011;58629;48.808;8.820;2023-05-10T13:05:21;1.77;;;0.60;;
70967;SDS011;58629;48.808;8.820;2023-05-10T13:07:46;1.23;;;0.60;;
70967;SDS011;58629;48.808;8.820;2023-05-10T13:10:11;2.53;;;0.60;;
70967;SDS011;58629;48.808;8.820;2023-05-10T13:12:37;2.40;;;0.60;;
70967;SDS011;58629;48.808;8.820;2023-05-10T13:15:02;0.60;;;0.50;;
70967;SDS011;58629;48.808;8.820;2023-05-10T13:17:28;0.55;;;0.43;;
70967;SDS011;58629;48.808;8.820;2023-05-10T13:19:54;1.50;;;0.50;;
70967;SDS011;58629;48.808;8.820;2023-05-10T13:22:19;0.50;;;0.50;;
70967;SDS011;58629;48.808;8.820;2023-05-10T13:24:44;1.10;;;0.43;;
70967;SDS011;58629;48.808;8.820;2023-05-10T13:27:10;1.37;;;0.50;;
70967;SDS011;58629;48.808;8.820;2023-05-10T13:29:35;4.43;;;0.50;;
70967;SDS011;58629;48.808;8.820;2023-05-10T13:32:00;2.10;;;0.60;;
70967;SDS011;58629;48.808;8.820;2023-05-10T13:34:26;2.50;;;0.67;;
70967;SDS011;58629;48.808;8.820;2023-05-10T13:36:51;1.73;;;0.68;;
70967;SDS011;58629;48.808;8.820;2023-05-10T13:39:18;2.58;;;0.65;;
70967;SDS011;58629;48.808;8.820;2023-05-10T13:41:44;1.50;;;0.60;;
70967;SDS011;58629;48.808;8.820;2023-05-10T13:44:11;1.20;;;0.70;;
70967;SDS011;58629;48.808;8.820;2023-05-10T13:46:37;1.05;;;0.57;;
70967;SDS011;58629;48.808;8.820;2023-05-10T13:49:03;2.20;;;0.60;;
70967;SDS011;58629;48.808;8.820;2023-05-10T13:51:28;1.33;;;0.68;;
70967;SDS011;58629;48.808;8.820;2023-05-10T13:53:54;0.97;;;0.53;;
70967;SDS011;58629;48.808;8.820;2023-05-10T13:56:19;1.20;;;0.70;;
70967;SDS011;58629;48.808;8.820;2023-05-10T13:58:44;1.20;;;0.80;;
70967;SDS011;58629;48.808;8.820;2023-05-10T14:01:10;1.20;;;0.50;;
70967;SDS011;58629;48.808;8.820;2023-05-10T14:03:36;1.02;;;0.50;;
70967;SDS011;58629;48.808;8.820;2023-05-10T14:06:02;3.63;;;0.50;;
70967;SDS011;58629;48.808;8.820;2023-05-10T14:08:27;0.63;;;0.40;;
70967;SDS011;58629;48.808;8.820;2023-05-10T14:10:52;0.63;;;0.40;;
70967;SDS011;58629;48.808;8.820;2023-05-10T14:13:18;1.13;;;0.40;;
70967;SDS011;58629;48.808;8.820;2023-05-10T14:15:43;1.17;;;0.40;;
70967;SDS011;58629;48.808;8.820;2023-05-10T14:18:08;1.33;;;0.40;;
70967;SDS011;58629;48.808;8.820;2023-05-10T14:20:34;0.90;;;0.50;;
70967;SDS011;58629;48.808;8.820;2023-05-10T14:22:59;0.80;;;0.50;;
70967;SDS011;58629;48.808;8.820;2023-05-10T14:25:25;0.73;;;0.50;;
70967;SDS011;58629;48.808;8.820;2023-05-10T14:27:50;0.45;;;0.35;;
70967;SDS011;58629;48.808;8.820;2023-05-10T14:30:16;0.38;;;0.30;;
70967;SDS011;58629;48.808;8.820;2023-05-10T14:32:41;2.30;;;0.40;;
70967;SDS011;58629;48.808;8.820;2023-05-10T14:35:07;0.50;;;0.40;;
70967;SDS011;58629;48.808;8.820;2023-05-10T14:37:33;0.50;;;0.40;;
70967;SDS011;58629;48.808;8.820;2023-05-10T14:39:58;0.90;;;0.40;;
70967;SDS011;58629;48.808;8.820;2023-05-10T14:42:23;0.30;;;0.30;;
70967;SDS011;58629;48.808;8.820;2023-05-10T14:44:48;1.97;;;0.60;;
70967;SDS011;58629;48.808;8.820;2023-05-10T14:47:14;0.50;;;0.30;;
70967;SDS011;58629;48.808;8.820;2023-05-10T14:49:39;2.37;;;0.40;;
70967;SDS011;58629;48.808;8.820;2023-05-10T14:52:05;0.30;;;0.30;;
70967;SDS011;58629;48.808;8.820;2023-05-10T14:54:30;5.30;;;0.30;;
70967;SDS011;58629;48.808;8.820;2023-05-10T14:56:58;1.40;;;0.40;;
70967;SDS011;58629;48.808;8.820;2023-05-10T14:59:23;2.00;;;0.33;;
70967;SDS011;58629;48.808;8.820;2023-05-10T15:01:48;0.60;;;0.30;;
70967;SDS011;58629;48.808;8.820;2023-05-10T15:04:14;0.87;;;0.30;;
70967;SDS011;58629;48.808;8.820;2023-05-10T15:06:41;0.77;;;0.40;;
70967;SDS011;58629;48.808;8.820;2023-05-10T15:09:06;0.30;;;0.30;;
70967;SDS011;58629;48.808;8.820;2023-05-10T15:11:32;1.33;;;0.30;;